createdAt,value
2022-11-26T00:01:08.321Z,92
2022-11-26T00:01:39.546Z,92
2022-11-26T00:02:31.354Z,93
2022-11-26T00:03:31.105Z,93
2022-11-26T00:04:56.677Z,93
2022-11-26T00:05:39.903Z,93
2022-11-26T00:06:32.659Z,93
2022-11-26T00:07:29.256Z,93
2022-11-26T00:08:27.394Z,93
2022-11-26T00:09:34.573Z,93
2022-11-26T00:10:45.613Z,93
2022-11-26T00:11:55.187Z,93
2022-11-26T00:12:32.200Z,94
2022-11-26T00:13:30.421Z,94
2022-11-26T00:14:41.486Z,94
2022-11-26T00:15:35.480Z,94
2022-11-26T00:16:23.853Z,94
2022-11-26T00:17:22.090Z,94
2022-11-26T00:18:32.999Z,94
2022-11-26T00:19:44.481Z,94
2022-11-26T00:20:37.059Z,94
2022-11-26T00:21:40.408Z,94
2022-11-26T00:22:34.180Z,94
2022-11-26T00:23:29.666Z,94
2022-11-26T00:24:27.394Z,94
2022-11-26T00:25:35.254Z,93
2022-11-26T00:26:23.977Z,93
2022-11-26T00:27:30.388Z,93
2022-11-26T00:28:34.544Z,93
2022-11-26T00:29:28.994Z,93
2022-11-26T00:30:24.848Z,93
2022-11-26T00:31:28.066Z,93
2022-11-26T00:32:34.182Z,93
2022-11-26T00:33:26.700Z,93
2022-11-26T00:34:23.306Z,93
2022-11-26T00:35:24.839Z,93
2022-11-26T00:36:33.258Z,93
2022-11-26T00:37:24.815Z,92
2022-11-26T00:38:23.573Z,93
2022-11-26T00:39:31.250Z,93
2022-11-26T00:40:33.116Z,93
2022-11-26T00:41:24.994Z,92
2022-11-26T00:42:24.892Z,92
2022-11-26T00:43:30.542Z,93
2022-11-26T00:44:40.705Z,93
2022-11-26T00:45:25.837Z,93
2022-11-26T00:46:22.295Z,93
2022-11-26T00:47:26.840Z,93
2022-11-26T00:48:23.409Z,93
2022-11-26T00:49:19.702Z,93
2022-11-26T00:51:25.205Z,93
2022-11-26T00:52:38.769Z,93
2022-11-26T00:53:24.708Z,93
2022-11-26T00:54:21.245Z,93
2022-11-26T00:55:34.986Z,93
2022-11-26T00:56:25.824Z,93
2022-11-26T00:57:35.490Z,94
2022-11-26T00:58:26.524Z,94
2022-11-26T00:59:22.380Z,94
2022-11-26T01:00:26.406Z,94
2022-11-26T01:01:25.557Z,94
2022-11-26T01:02:37.394Z,94
2022-11-26T01:03:33.196Z,94
2022-11-26T01:04:20.553Z,94
2022-11-26T01:06:25.447Z,94
2022-11-26T01:06:30.006Z,94
2022-11-26T01:07:27.473Z,94
2022-11-26T01:08:27.873Z,94
2022-11-26T01:09:22.707Z,94
2022-11-26T01:11:26.415Z,94
2022-11-26T01:12:30.576Z,94
2022-11-26T01:13:21.665Z,94
2022-11-26T01:14:46.969Z,94
2022-11-26T01:15:36.375Z,94
2022-11-26T01:16:29.513Z,94
2022-11-26T01:17:43.412Z,94
2022-11-26T01:18:28.783Z,94
2022-11-26T01:19:23.133Z,94
2022-11-26T01:20:25.307Z,94
2022-11-26T01:21:36.142Z,94
2022-11-26T01:22:25.875Z,94
2022-11-26T01:23:33.896Z,94
2022-11-26T01:24:23.243Z,94
2022-11-26T01:25:28.877Z,94
2022-11-26T01:26:26.383Z,94
2022-11-26T01:27:20.941Z,94
2022-11-26T01:29:16.876Z,94
2022-11-26T01:29:31.835Z,94
2022-11-26T01:30:27.215Z,94
2022-11-26T01:31:33.248Z,94
2022-11-26T01:32:25.297Z,94
2022-11-26T01:33:33.351Z,95
2022-11-26T01:34:33.890Z,95
2022-11-26T01:36:38.617Z,95
2022-11-26T01:37:32.966Z,95
2022-11-26T01:38:33.388Z,95
2022-11-26T01:39:38.521Z,95
2022-11-26T01:40:31.893Z,95
2022-11-26T01:41:21.487Z,95
2022-11-26T01:42:21.351Z,95
2022-11-26T01:43:31.311Z,95
2022-11-26T01:44:22.509Z,95
2022-11-26T01:45:35.340Z,95
2022-11-26T01:46:30.926Z,95
2022-11-26T01:47:26.940Z,95
2022-11-26T01:48:20.616Z,95
2022-11-26T01:49:24.961Z,95
2022-11-26T01:50:33.903Z,95
2022-11-26T01:51:48.697Z,95
2022-11-26T01:52:39.436Z,95
2022-11-26T01:53:27.586Z,95
2022-11-26T01:54:28.565Z,95
2022-11-26T01:55:21.314Z,95
2022-11-26T01:56:30.450Z,95
2022-11-26T01:57:23.852Z,95
2022-11-26T01:58:22.805Z,95
2022-11-26T01:59:34.312Z,95
2022-11-26T02:00:30.228Z,95
2022-11-26T02:43:27.534Z,94
2022-11-26T02:44:35.066Z,94
2022-11-26T02:45:26.678Z,94
2022-11-26T02:46:28.043Z,93
2022-11-26T02:47:27.328Z,93
2022-11-26T03:23:29.272Z,93
2022-11-26T03:24:34.296Z,93
2022-11-26T03:25:27.211Z,93
2022-11-26T03:26:33.950Z,93
2022-11-26T03:27:51.781Z,93
2022-11-26T03:28:28.093Z,93
2022-11-26T03:29:25.482Z,93
2022-11-26T03:30:34.434Z,93
2022-11-26T03:31:29.435Z,93
2022-11-26T03:32:25.315Z,93
2022-11-26T03:33:26.013Z,93
2022-11-26T03:34:26.021Z,93
2022-11-26T03:35:29.450Z,93
2022-11-26T03:36:24.517Z,93
2022-11-26T03:37:32.814Z,93
2022-11-26T03:38:31.600Z,93
2022-11-26T03:39:31.317Z,93
2022-11-26T03:40:24.120Z,93
2022-11-26T03:41:22.395Z,93
2022-11-26T03:42:28.925Z,93
2022-11-26T03:43:24.324Z,93
2022-11-26T03:44:33.198Z,93
2022-11-26T03:45:24.407Z,93
2022-11-26T03:46:28.320Z,93
2022-11-26T03:47:24.702Z,93
2022-11-26T03:48:25.654Z,93
2022-11-26T03:49:28.893Z,93
2022-11-26T03:50:28.736Z,93
2022-11-26T03:51:29.661Z,93
2022-11-26T03:52:30.538Z,93
2022-11-26T03:53:32.842Z,93
2022-11-26T03:54:21.307Z,93
2022-11-26T03:55:30.941Z,93
2022-11-26T03:56:23.694Z,93
2022-11-26T03:57:23.193Z,93
2022-11-26T03:58:21.663Z,93
2022-11-26T03:59:30.726Z,93
2022-11-26T04:00:30.676Z,93
2022-11-26T04:01:24.051Z,93
2022-11-26T04:02:25.611Z,93
2022-11-26T04:03:32.199Z,93
2022-11-26T04:04:23.672Z,93
2022-11-26T04:05:25.516Z,93
2022-11-26T04:06:29.586Z,93
2022-11-26T04:07:26.714Z,93
2022-11-26T04:08:23.756Z,93
2022-11-26T04:09:30.716Z,93
2022-11-26T04:10:32.442Z,93
2022-11-26T04:11:24.865Z,93
2022-11-26T04:12:22.048Z,94
2022-11-26T04:13:22.514Z,94
2022-11-26T04:14:24.956Z,94
2022-11-26T04:15:21.943Z,94
2022-11-26T04:16:33.970Z,94
2022-11-26T04:17:30.774Z,94
2022-11-26T04:18:25.049Z,94
2022-11-26T04:19:22.236Z,94
2022-11-26T04:20:31.128Z,94
2022-11-26T04:21:20.083Z,94
2022-11-26T04:22:21.208Z,93
2022-11-26T04:23:33.149Z,93
2022-11-26T04:24:27.109Z,93
2022-11-26T04:25:24.681Z,93
2022-11-26T04:26:36.517Z,93
2022-11-26T04:27:32.704Z,93
2022-11-26T04:28:28.252Z,93
2022-11-26T04:29:21.503Z,93
2022-11-26T04:30:23.036Z,93
2022-11-26T04:31:32.558Z,93
2022-11-26T04:32:26.132Z,93
2022-11-26T04:33:30.259Z,93
2022-11-26T04:34:23.527Z,93
2022-11-26T04:35:27.729Z,93
2022-11-26T04:36:23.523Z,93
2022-11-26T04:37:25.382Z,93
2022-11-26T04:38:32.776Z,93
2022-11-26T04:39:27.423Z,93
2022-11-26T04:40:36.593Z,93
2022-11-26T04:41:22.207Z,93
2022-11-26T04:42:21.583Z,93
2022-11-26T04:43:26.010Z,93
2022-11-26T04:44:27.106Z,93
2022-11-26T04:45:31.345Z,93
2022-11-26T04:46:23.761Z,93
2022-11-26T04:47:26.410Z,93
2022-11-26T04:48:26.510Z,93
2022-11-26T04:49:27.156Z,93
2022-11-26T04:50:21.706Z,93
2022-11-26T04:51:26.400Z,93
2022-11-26T04:52:28.446Z,94
2022-11-26T04:53:23.459Z,94
2022-11-26T04:54:33.422Z,94
2022-11-26T04:55:27.976Z,94
2022-11-26T04:56:31.576Z,94
2022-11-26T04:57:37.052Z,93
2022-11-26T04:58:28.538Z,93
2022-11-26T04:59:20.593Z,93
2022-11-26T05:00:23.609Z,93
2022-11-26T05:01:33.213Z,93
2022-11-26T05:02:30.435Z,93
2022-11-26T05:03:25.338Z,93
2022-11-26T05:04:24.479Z,93
2022-11-26T05:05:30.822Z,93
2022-11-26T05:06:28.245Z,93
2022-11-26T05:07:23.437Z,93
2022-11-26T05:08:39.415Z,93
2022-11-26T05:09:23.588Z,93
2022-11-26T05:10:28.185Z,93
2022-11-26T05:11:21.579Z,93
2022-11-26T05:12:27.380Z,93
2022-11-26T05:13:27.503Z,93
2022-11-26T05:14:21.867Z,93
2022-11-26T05:15:26.491Z,93
2022-11-26T05:16:29.131Z,93
2022-11-26T05:17:20.652Z,93
2022-11-26T05:18:36.410Z,93
2022-11-26T05:19:26.924Z,93
2022-11-26T05:20:19.811Z,93
2022-11-26T05:21:23.794Z,93
2022-11-26T05:22:35.813Z,93
2022-11-26T05:23:32.807Z,93
2022-11-26T05:24:28.618Z,93
2022-11-26T05:25:26.620Z,93
2022-11-26T05:26:22.935Z,93
2022-11-26T05:27:26.155Z,93
2022-11-26T05:28:23.176Z,93
2022-11-26T05:29:22.752Z,93
2022-11-26T05:30:30.310Z,93
2022-11-26T05:31:26.798Z,93
2022-11-26T05:32:26.749Z,93
2022-11-26T05:33:33.329Z,93
2022-11-26T05:34:31.721Z,93
2022-11-26T05:35:23.125Z,93
2022-11-26T05:36:26.969Z,93
2022-11-26T05:37:31.103Z,93
2022-11-26T05:38:25.538Z,93
2022-11-26T05:39:21.779Z,93
2022-11-26T05:40:31.422Z,93
2022-11-26T05:41:28.803Z,93
2022-11-26T05:42:25.573Z,93
2022-11-26T05:43:25.432Z,93
2022-11-26T05:44:23.830Z,93
2022-11-26T05:45:29.143Z,93
2022-11-26T05:46:23.634Z,93
2022-11-26T05:47:31.385Z,93
2022-11-26T05:48:27.973Z,93
2022-11-26T05:49:25.051Z,93
2022-11-26T05:50:22.651Z,93
2022-11-26T05:51:25.527Z,93
2022-11-26T05:52:27.428Z,93
2022-11-26T05:53:22.563Z,93
2022-11-26T05:54:21.103Z,93
2022-11-26T05:55:28.276Z,93
2022-11-26T05:56:23.382Z,93
2022-11-26T05:57:26.861Z,93
2022-11-26T05:58:20.284Z,93
2022-11-26T05:59:27.260Z,93
2022-11-26T06:00:21.653Z,94
2022-11-26T06:01:36.550Z,94
2022-11-26T06:02:27.897Z,94
2022-11-26T06:03:25.130Z,94
2022-11-26T06:04:20.709Z,94
2022-11-26T06:05:23.983Z,94
2022-11-26T06:06:31.704Z,94
2022-11-26T06:07:21.155Z,94
2022-11-26T06:08:33.008Z,94
2022-11-26T06:09:27.239Z,94
2022-11-26T06:10:25.451Z,95
2022-11-26T06:11:23.676Z,95
2022-11-26T06:12:29.376Z,95
2022-11-26T06:13:24.116Z,95
2022-11-26T06:14:23.182Z,95
2022-11-26T06:15:33.034Z,95
2022-11-26T06:16:27.414Z,95
2022-11-26T06:17:23.045Z,95
2022-11-26T06:18:26.368Z,95
2022-11-26T06:19:31.819Z,95
2022-11-26T06:20:27.602Z,95
2022-11-26T06:21:22.260Z,95
2022-11-26T06:22:26.836Z,95
2022-11-26T06:23:28.392Z,95
2022-11-26T06:24:26.552Z,95
2022-11-26T06:25:33.646Z,95
2022-11-26T06:26:31.776Z,95
2022-11-26T06:27:25.951Z,95
2022-11-26T06:28:29.793Z,95
2022-11-26T06:29:32.492Z,95
2022-11-26T06:30:27.554Z,95
2022-11-26T06:31:24.727Z,94
2022-11-26T06:32:20.633Z,94
2022-11-26T06:33:21.349Z,94
2022-11-26T06:34:30.345Z,94
2022-11-26T06:35:20.917Z,94
2022-11-26T06:36:22.715Z,94
2022-11-26T06:37:32.223Z,94
2022-11-26T06:38:23.686Z,94
2022-11-26T06:39:22.882Z,94
2022-11-26T06:40:23.618Z,93
2022-11-26T06:41:26.651Z,93
2022-11-26T06:42:22.267Z,94
2022-11-26T06:43:24.300Z,94
2022-11-26T06:44:27.536Z,94
2022-11-26T06:45:23.528Z,94
2022-11-26T06:46:19.056Z,93
2022-11-26T06:47:25.813Z,93
2022-11-26T06:48:27.142Z,93
2022-11-26T06:49:21.734Z,93
2022-11-26T06:50:29.431Z,93
2022-11-26T06:51:21.902Z,93
2022-11-26T06:52:23.567Z,93
2022-11-26T06:53:23.148Z,93
2022-11-26T06:54:30.670Z,93
2022-11-26T06:55:26.530Z,94
2022-11-26T06:56:25.755Z,94
2022-11-26T06:57:32.639Z,94
2022-11-26T06:58:27.271Z,94
2022-11-26T06:59:29.430Z,94
2022-11-26T07:00:36.734Z,94
2022-11-26T07:01:31.517Z,94
2022-11-26T07:02:29.613Z,94
2022-11-26T07:03:24.921Z,94
2022-11-26T07:04:31.244Z,94
2022-11-26T07:05:31.488Z,94
2022-11-26T07:06:23.192Z,94
2022-11-26T07:07:26.699Z,94
2022-11-26T07:08:30.639Z,94
2022-11-26T07:09:21.720Z,94
2022-11-26T07:10:23.952Z,94
2022-11-26T07:11:35.719Z,94
2022-11-26T07:12:29.906Z,94
2022-11-26T07:13:29.229Z,95
2022-11-26T07:14:20.030Z,95
2022-11-26T07:15:21.802Z,95
2022-11-26T07:16:27.993Z,95
2022-11-26T07:17:21.059Z,95
2022-11-26T07:18:31.596Z,95
2022-11-26T07:19:32.453Z,95
2022-11-26T07:20:19.467Z,95
2022-11-26T07:21:20.256Z,95
2022-11-26T07:22:26.393Z,95
2022-11-26T07:23:27.362Z,95
2022-11-26T07:24:23.522Z,94
2022-11-26T07:25:35.098Z,94
2022-11-26T07:26:28.303Z,94
2022-11-26T07:27:24.823Z,94
2022-11-26T07:28:19.134Z,95
2022-11-26T07:29:21.722Z,95
2022-11-26T07:30:21.593Z,95
2022-11-26T07:31:21.097Z,95
2022-11-26T07:32:33.522Z,95
2022-11-26T07:33:29.625Z,95
2022-11-26T07:34:25.881Z,95
2022-11-26T07:35:19.958Z,95
2022-11-26T07:36:27.946Z,95
2022-11-26T07:37:25.321Z,95
2022-11-26T07:38:22.169Z,95
2022-11-26T07:39:33.601Z,95
2022-11-26T07:40:27.633Z,95
2022-11-26T07:41:29.090Z,95
2022-11-26T07:42:21.510Z,95
2022-11-26T07:43:29.808Z,95
2022-11-26T07:44:26.687Z,95
2022-11-26T07:45:25.495Z,95
2022-11-26T07:46:36.120Z,95
2022-11-26T07:47:32.015Z,95
2022-11-26T07:48:25.312Z,95
2022-11-26T07:49:19.496Z,95
2022-11-26T07:50:33.057Z,95
2022-11-26T07:51:31.875Z,95
2022-11-26T07:52:21.704Z,95
2022-11-26T07:53:21.786Z,95
2022-11-26T07:54:27.541Z,95
2022-11-26T07:55:27.816Z,95
2022-11-26T07:56:23.804Z,94
2022-11-26T07:57:32.048Z,94
2022-11-26T07:58:27.606Z,94
2022-11-26T07:59:25.586Z,94
2022-11-26T08:00:23.256Z,94
2022-11-26T08:01:27.581Z,94
2022-11-26T08:02:26.097Z,94
2022-11-26T08:03:19.838Z,94
2022-11-26T08:04:31.978Z,93
2022-11-26T08:05:27.494Z,93
2022-11-26T08:06:30.055Z,93
2022-11-26T08:07:28.876Z,93
2022-11-26T08:08:20.718Z,93
2022-11-26T08:09:25.880Z,93
2022-11-26T08:10:19.580Z,93
2022-11-26T08:11:29.067Z,93
2022-11-26T08:12:27.022Z,93
2022-11-26T08:13:25.862Z,93
2022-11-26T08:14:25.711Z,93
2022-11-26T08:15:30.705Z,93
2022-11-26T08:16:28.791Z,93
2022-11-26T08:17:21.401Z,93
2022-11-26T08:18:31.861Z,93
2022-11-26T08:19:25.567Z,93
2022-11-26T08:20:28.587Z,93
2022-11-26T08:21:25.597Z,93
2022-11-26T08:22:23.996Z,93
2022-11-26T08:23:29.253Z,93
2022-11-26T08:24:20.476Z,93
2022-11-26T08:25:20.949Z,92
2022-11-26T08:26:35.972Z,93
2022-11-26T08:27:22.717Z,93
2022-11-26T08:28:31.793Z,93
2022-11-26T08:29:30.757Z,93
2022-11-26T08:30:20.342Z,93
2022-11-26T08:31:22.696Z,93
2022-11-26T08:32:25.987Z,93
2022-11-26T08:33:29.938Z,93
2022-11-26T08:34:35.338Z,93
2022-11-26T08:36:05.108Z,93
2022-11-26T08:36:27.503Z,93
2022-11-26T08:37:24.411Z,93
2022-11-26T08:38:27.073Z,93
2022-11-26T08:39:26.234Z,93
2022-11-26T08:40:30.179Z,93
2022-11-26T08:41:21.069Z,93
2022-11-26T08:42:34.834Z,93
2022-11-26T08:43:34.670Z,93
2022-11-26T08:44:26.318Z,93
2022-11-26T08:45:21.515Z,93
2022-11-26T08:46:24.218Z,93
2022-11-26T08:47:29.471Z,93
2022-11-26T08:48:30.483Z,93
2022-11-26T08:49:38.000Z,93
2022-11-26T08:50:24.729Z,93
2022-11-26T08:51:25.046Z,93
2022-11-26T08:52:20.432Z,93
2022-11-26T08:53:23.784Z,93
2022-11-26T08:54:20.319Z,93
2022-11-26T08:55:24.078Z,92
2022-11-26T08:56:32.685Z,92
2022-11-26T08:57:29.757Z,92
2022-11-26T08:58:27.328Z,93
2022-11-26T08:59:21.560Z,93
2022-11-26T09:00:26.984Z,93
2022-11-26T09:01:23.279Z,93
2022-11-26T09:02:21.573Z,92
2022-11-26T09:03:33.025Z,93
2022-11-26T09:04:27.836Z,93
2022-11-26T09:05:29.930Z,93
2022-11-26T09:06:20.105Z,93
2022-11-26T09:07:31.565Z,93
2022-11-26T09:08:22.188Z,93
2022-11-26T09:09:37.673Z,93
2022-11-26T09:10:35.925Z,92
2022-11-26T09:11:34.162Z,92
2022-11-26T09:12:26.669Z,92
2022-11-26T09:13:21.528Z,92
2022-11-26T09:14:33.352Z,92
2022-11-26T09:15:28.890Z,92
2022-11-26T09:16:24.926Z,93
2022-11-26T09:17:34.454Z,93
2022-11-26T09:18:29.043Z,93
2022-11-26T09:19:42.165Z,92
2022-11-26T09:20:27.040Z,93
2022-11-26T09:21:29.347Z,93
2022-11-26T09:22:30.602Z,93
2022-11-26T09:23:24.836Z,93
2022-11-26T09:24:33.751Z,92
2022-11-26T09:25:30.657Z,92
2022-11-26T09:26:29.311Z,92
2022-11-26T09:27:24.130Z,92
2022-11-26T09:28:31.895Z,93
2022-11-26T09:29:38.574Z,93
2022-11-26T09:30:28.102Z,92
2022-11-26T09:31:23.169Z,92
2022-11-26T09:32:33.902Z,93
2022-11-26T09:33:29.599Z,93
2022-11-26T09:34:22.242Z,92
2022-11-26T09:35:31.211Z,92
2022-11-26T09:36:41.655Z,92
2022-11-26T09:37:23.409Z,93
2022-11-26T09:38:23.231Z,93
2022-11-26T09:39:19.708Z,92
2022-11-26T09:40:23.967Z,92
2022-11-26T09:41:36.591Z,92
2022-11-26T09:42:29.885Z,93
2022-11-26T09:43:27.508Z,93
2022-11-26T09:44:23.783Z,92
2022-11-26T09:45:34.557Z,92
2022-11-26T09:46:22.518Z,92
2022-11-26T09:47:37.443Z,92
2022-11-26T09:48:22.816Z,92
2022-11-26T09:49:32.573Z,93
2022-11-26T09:50:22.938Z,92
2022-11-26T09:51:22.817Z,92
2022-11-26T09:52:38.245Z,92
2022-11-26T09:53:27.135Z,93
2022-11-26T09:54:23.890Z,93
2022-11-26T09:55:19.982Z,93
2022-11-26T09:56:32.367Z,92
2022-11-26T09:57:26.121Z,92
2022-11-26T09:58:37.994Z,92
2022-11-26T09:59:22.952Z,92
2022-11-26T10:00:32.036Z,92
2022-11-26T10:01:25.782Z,92
2022-11-26T10:02:33.686Z,92
2022-11-26T10:03:30.065Z,92
2022-11-26T10:04:31.943Z,92
2022-11-26T10:05:23.408Z,92
2022-11-26T10:06:23.611Z,92
2022-11-26T10:07:32.223Z,92
2022-11-26T10:08:29.483Z,91
2022-11-26T10:09:22.634Z,91
2022-11-26T10:10:29.879Z,92
2022-11-26T10:11:25.338Z,92
2022-11-26T10:12:25.918Z,92
2022-11-26T10:13:28.509Z,92
2022-11-26T10:14:27.594Z,92
2022-11-26T10:15:38.729Z,92
2022-11-26T10:16:26.704Z,92
2022-11-26T10:17:21.805Z,91
2022-11-26T10:18:23.143Z,91
2022-11-26T10:19:21.417Z,91
2022-11-26T10:20:34.058Z,92
2022-11-26T10:22:02.509Z,91
2022-11-26T10:22:23.993Z,91
2022-11-26T10:23:22.629Z,90
2022-11-26T10:24:28.813Z,91
2022-11-26T10:25:59.786Z,91
2022-11-26T10:26:47.524Z,91
2022-11-26T10:27:35.645Z,91
2022-11-26T10:28:19.579Z,91
2022-11-26T10:29:42.605Z,91
2022-11-26T10:30:35.511Z,91
2022-11-26T10:31:33.055Z,91
2022-11-26T10:32:25.525Z,90
2022-11-26T10:33:23.651Z,90
2022-11-26T10:34:42.074Z,91
2022-11-26T10:35:23.836Z,91
2022-11-26T10:36:41.626Z,91
2022-11-26T10:37:39.042Z,90
2022-11-26T10:38:32.837Z,91
2022-11-26T10:39:25.956Z,91
2022-11-26T10:40:53.792Z,90
2022-11-26T10:41:31.747Z,91
2022-11-26T10:42:28.803Z,91
2022-11-26T10:43:54.882Z,90
2022-11-26T10:44:25.691Z,91
2022-11-26T10:45:34.582Z,91
2022-11-26T10:46:29.351Z,91
2022-11-26T10:47:24.611Z,91
2022-11-26T10:48:43.119Z,91
2022-11-26T10:49:30.239Z,91
2022-11-26T10:50:55.112Z,91
2022-11-26T10:51:26.340Z,90
2022-11-26T10:52:27.368Z,90
2022-11-26T10:53:33.288Z,90
2022-11-26T10:54:26.409Z,90
2022-11-26T10:55:35.156Z,90
2022-11-26T10:56:31.334Z,89
2022-11-26T10:57:29.253Z,90
2022-11-26T10:58:31.590Z,90
2022-11-26T10:59:31.142Z,90
2022-11-26T11:00:47.406Z,90
2022-11-26T11:01:34.351Z,89
2022-11-26T11:02:26.392Z,89
2022-11-26T11:04:06.091Z,87
2022-11-26T11:04:31.003Z,90
2022-11-26T11:05:27.652Z,89
2022-11-26T11:06:45.651Z,89
2022-11-26T11:07:32.165Z,90
2022-11-26T11:08:32.659Z,89
2022-11-26T11:09:46.275Z,88
2022-11-26T11:10:42.436Z,89
2022-11-26T11:11:45.029Z,89
2022-11-26T11:12:23.035Z,89
2022-11-26T11:13:33.449Z,89
2022-11-26T11:14:23.470Z,90
2022-11-26T11:15:39.324Z,89
2022-11-26T11:16:31.811Z,89
2022-11-26T11:17:24.517Z,89
2022-11-26T11:18:30.935Z,88
2022-11-26T11:19:19.860Z,88
2022-11-26T11:20:29.790Z,88
2022-11-26T11:21:32.201Z,90
2022-11-26T11:22:24.439Z,90
2022-11-26T11:24:06.590Z,88
2022-11-26T11:24:35.031Z,88
2022-11-26T11:25:30.299Z,88
2022-11-26T11:26:23.888Z,89
2022-11-26T11:27:56.618Z,88
2022-11-26T11:28:33.117Z,88
2022-11-26T11:29:32.507Z,89
2022-11-26T11:30:34.093Z,89
2022-11-26T11:31:24.531Z,88
2022-11-26T11:32:30.492Z,86
2022-11-26T11:33:22.554Z,87
2022-11-26T11:34:34.102Z,89
2022-11-26T11:35:28.922Z,88
2022-11-26T11:36:22.100Z,87
2022-11-26T11:37:32.247Z,87
2022-11-26T11:38:31.467Z,88
2022-11-26T11:39:27.184Z,89
2022-11-26T11:40:20.447Z,89
2022-11-26T11:41:30.272Z,87
2022-11-26T11:42:50.733Z,87
2022-11-26T11:43:21.877Z,87
2022-11-26T11:44:36.267Z,89
2022-11-26T11:45:53.130Z,87
2022-11-26T11:46:28.367Z,86
2022-11-26T11:47:27.255Z,86
2022-11-26T11:48:23.560Z,87
2022-11-26T11:49:25.983Z,89
2022-11-26T11:50:27.837Z,88
2022-11-26T11:51:27.902Z,87
2022-11-26T11:52:51.636Z,87
2022-11-26T11:53:23.825Z,88
2022-11-26T11:54:30.353Z,88
2022-11-26T11:55:25.632Z,87
2022-11-26T11:56:26.512Z,88
2022-11-26T11:57:21.905Z,88
2022-11-26T11:58:30.651Z,88
2022-11-26T11:59:24.538Z,88
2022-11-26T12:00:24.040Z,88
2022-11-26T12:01:24.892Z,88
2022-11-26T12:02:20.116Z,88
2022-11-26T12:03:33.224Z,88
2022-11-26T12:04:22.378Z,88
2022-11-26T12:05:31.584Z,88
2022-11-26T12:06:40.353Z,88
2022-11-26T12:07:26.673Z,88
2022-11-26T12:08:49.628Z,87
2022-11-26T12:09:23.908Z,86
2022-11-26T12:10:32.334Z,86
2022-11-26T12:11:34.752Z,85
2022-11-26T12:12:31.809Z,87
2022-11-26T12:13:40.949Z,87
2022-11-26T12:14:58.619Z,87
2022-11-26T12:15:50.313Z,87
2022-11-26T12:16:24.819Z,86
2022-11-26T12:17:33.074Z,84
2022-11-26T12:18:25.007Z,86
2022-11-26T12:19:35.585Z,85
2022-11-26T12:20:23.189Z,86
2022-11-26T12:22:12.889Z,85
2022-11-26T12:22:36.443Z,82
2022-11-26T12:23:32.071Z,82
2022-11-26T12:24:35.228Z,82
2022-11-26T12:25:33.590Z,82
2022-11-26T12:26:42.755Z,80
2022-11-26T12:27:20.059Z,79
2022-11-26T12:28:36.216Z,81
2022-11-26T12:29:52.278Z,80
2022-11-26T12:30:35.087Z,80
2022-11-26T12:31:36.308Z,81
2022-11-26T12:32:29.420Z,77
2022-11-26T12:33:28.816Z,78
2022-11-26T12:34:31.191Z,80
2022-11-26T12:35:54.889Z,78
2022-11-26T12:36:58.476Z,75
2022-11-26T12:37:39.524Z,77
2022-11-26T12:38:24.391Z,76
2022-11-26T12:39:36.325Z,74
2022-11-26T12:40:54.251Z,75
2022-11-26T12:41:34.015Z,75
2022-11-26T12:42:27.871Z,75
2022-11-26T12:43:24.955Z,74
2022-11-26T12:44:23.561Z,72
2022-11-26T12:45:30.460Z,74
2022-11-26T12:46:39.915Z,74
2022-11-26T12:47:35.957Z,73
2022-11-26T12:48:26.793Z,74
2022-11-26T12:49:21.983Z,76
2022-11-26T12:50:26.380Z,74
2022-11-26T12:51:42.243Z,73
2022-11-26T12:52:30.750Z,71
2022-11-26T12:53:45.557Z,72
2022-11-26T12:54:37.722Z,74
2022-11-26T12:55:30.973Z,72
2022-11-26T12:56:22.859Z,69
2022-11-26T12:57:19.630Z,70
2022-11-26T12:58:30.108Z,71
2022-11-26T12:59:26.029Z,69
2022-11-26T13:00:32.769Z,70
2022-11-26T13:01:35.166Z,72
2022-11-26T13:02:37.160Z,74
2022-11-26T13:04:55.418Z,69
2022-11-26T13:05:32.155Z,73
2022-11-26T13:06:36.981Z,73
2022-11-26T13:07:22.245Z,72
2022-11-26T13:08:36.027Z,71
2022-11-26T13:09:38.537Z,69
2022-11-26T13:10:30.917Z,70
2022-11-26T13:11:25.634Z,69
2022-11-26T13:12:20.335Z,68
2022-11-26T13:13:37.210Z,72
2022-11-26T13:14:25.533Z,71
2022-11-26T13:15:48.477Z,71
2022-11-26T13:16:41.558Z,70
2022-11-26T13:17:33.788Z,69
2022-11-26T13:18:30.332Z,72
2022-11-26T13:19:43.806Z,70
2022-11-26T13:20:25.740Z,72
2022-11-26T13:21:22.389Z,73
2022-11-26T13:22:33.227Z,74
2022-11-26T13:23:28.387Z,72
2022-11-26T13:24:25.362Z,72
2022-11-26T13:25:24.529Z,70
2022-11-26T13:26:23.519Z,70
2022-11-26T13:27:25.863Z,71
2022-11-26T13:28:23.349Z,73
2022-11-26T13:29:23.368Z,70
2022-11-26T13:30:27.536Z,71
2022-11-26T13:31:42.170Z,72
2022-11-26T13:32:19.997Z,74
2022-11-26T13:33:25.626Z,72
2022-11-26T13:34:20.994Z,69
2022-11-26T13:35:32.104Z,71
2022-11-26T13:36:23.010Z,73
2022-11-26T13:37:53.206Z,73
2022-11-26T13:39:28.747Z,69
2022-11-26T13:40:19.364Z,73
2022-11-26T13:41:25.265Z,71
2022-11-26T13:42:49.002Z,71
2022-11-26T13:43:28.190Z,71
2022-11-26T13:44:43.017Z,70
2022-11-26T13:45:52.095Z,69
2022-11-26T13:46:23.258Z,67
2022-11-26T13:47:38.136Z,70
2022-11-26T13:48:26.126Z,69
2022-11-26T13:49:22.201Z,68
2022-11-26T13:50:30.366Z,69
2022-11-26T13:51:31.225Z,71
2022-11-26T13:52:28.758Z,69
2022-11-26T13:53:24.998Z,68
2022-11-26T13:54:21.115Z,71
2022-11-26T13:55:26.875Z,73
2022-11-26T13:56:22.430Z,71
2022-11-26T13:57:23.082Z,70
2022-11-26T13:58:29.963Z,68
2022-11-26T13:59:39.869Z,72
2022-11-26T14:00:23.303Z,72
2022-11-26T14:01:27.996Z,71
2022-11-26T14:02:25.974Z,72
2022-11-26T14:03:24.007Z,70
2022-11-26T14:04:24.111Z,70
2022-11-26T14:05:27.983Z,69
2022-11-26T14:06:27.525Z,70
2022-11-26T14:07:45.234Z,70
2022-11-26T14:08:33.953Z,73
2022-11-26T14:09:38.650Z,74
2022-11-26T14:10:32.045Z,70
2022-11-26T14:11:25.159Z,72
2022-11-26T14:12:24.393Z,73
2022-11-26T14:14:01.321Z,73
2022-11-26T14:14:26.894Z,75
2022-11-26T14:15:38.498Z,73
2022-11-26T14:16:45.009Z,75
2022-11-26T14:17:39.965Z,75
2022-11-26T14:18:30.720Z,75
2022-11-26T14:19:22.690Z,74
2022-11-26T14:20:33.328Z,72
2022-11-26T14:21:42.826Z,73
2022-11-26T14:22:34.472Z,75
2022-11-26T14:24:38.599Z,76
2022-11-26T14:25:22.579Z,77
2022-11-26T14:26:26.576Z,76
2022-11-26T14:27:25.025Z,76
2022-11-26T14:28:50.106Z,76
2022-11-26T14:29:40.797Z,74
2022-11-26T14:30:26.838Z,74
2022-11-26T14:31:27.540Z,73
2022-11-26T14:32:42.222Z,75
2022-11-26T14:34:23.491Z,76
2022-11-26T14:35:30.645Z,77
2022-11-26T14:36:50.035Z,76
2022-11-26T14:37:38.124Z,76
2022-11-26T14:38:48.333Z,75
2022-11-26T14:39:42.766Z,75
2022-11-26T14:40:38.471Z,73
2022-11-26T14:41:21.050Z,76
2022-11-26T14:42:25.397Z,73
2022-11-26T14:43:41.118Z,75
2022-11-26T14:44:28.966Z,76
2022-11-26T14:45:59.597Z,74
2022-11-26T14:46:45.009Z,74
2022-11-26T14:47:36.903Z,76
2022-11-26T14:48:31.944Z,76
2022-11-26T14:49:24.276Z,76
2022-11-26T14:50:21.971Z,76
2022-11-26T14:51:38.563Z,77
2022-11-26T14:52:56.722Z,76
2022-11-26T14:53:48.546Z,76
2022-11-26T14:54:33.976Z,78
2022-11-26T14:55:29.837Z,76
2022-11-26T14:56:27.232Z,77
2022-11-26T14:57:26.423Z,76
2022-11-26T14:58:35.949Z,78
2022-11-26T14:59:26.492Z,76
2022-11-26T15:00:40.765Z,77
2022-11-26T15:01:48.289Z,76
2022-11-26T15:02:32.977Z,77
2022-11-26T15:03:30.154Z,76
2022-11-26T15:04:28.169Z,77
2022-11-26T15:05:25.093Z,78
2022-11-26T15:06:27.820Z,77
2022-11-26T15:07:56.389Z,78
2022-11-26T15:08:54.636Z,79
2022-11-26T15:09:35.129Z,79
2022-11-26T15:10:30.548Z,77
2022-11-26T15:11:31.626Z,79
2022-11-26T15:12:22.120Z,78
2022-11-26T15:13:24.103Z,78
2022-11-26T15:15:05.870Z,78
2022-11-26T15:15:52.596Z,78
2022-11-26T15:16:29.244Z,79
2022-11-26T15:17:29.283Z,77
2022-11-26T15:18:31.464Z,79
2022-11-26T15:19:25.992Z,79
2022-11-26T15:20:26.792Z,78
2022-11-26T15:22:06.851Z,77
2022-11-26T15:22:35.005Z,79
2022-11-26T15:23:45.897Z,80
2022-11-26T15:24:28.327Z,81
2022-11-26T15:25:41.639Z,79
2022-11-26T15:26:29.985Z,78
2022-11-26T15:27:34.855Z,79
2022-11-26T15:28:37.068Z,81
2022-11-26T15:29:51.185Z,81
2022-11-26T15:30:43.245Z,80
2022-11-26T15:31:32.179Z,80
2022-11-26T15:32:44.858Z,81
2022-11-26T15:33:32.793Z,80
2022-11-26T15:34:27.053Z,80
2022-11-26T15:35:25.628Z,81
2022-11-26T15:37:00.303Z,81
2022-11-26T15:37:46.312Z,79
2022-11-26T15:38:22.256Z,80
2022-11-26T15:39:34.923Z,81